createdAt,value
2019-03-24T00:00:37.708Z,11.26
2019-03-24T00:03:06.647Z,11.21
2019-03-24T00:05:35.559Z,11.14
2019-03-24T00:08:05.475Z,11.05
2019-03-24T00:10:34.432Z,10.99
2019-03-24T00:13:05.240Z,10.94
2019-03-24T00:15:34.593Z,10.92
2019-03-24T00:18:04.528Z,10.89
2019-03-24T00:20:33.614Z,10.88
2019-03-24T00:23:02.588Z,10.83
2019-03-24T00:25:31.497Z,10.81
2019-03-24T00:28:00.412Z,10.79
2019-03-24T00:30:29.303Z,10.75
2019-03-24T00:32:58.188Z,10.72
2019-03-24T00:35:27.396Z,10.69
2019-03-24T00:37:56.264Z,10.66
2019-03-24T00:40:26.280Z,10.60
2019-03-24T00:42:55.186Z,10.56
2019-03-24T00:45:24.090Z,10.54
2019-03-24T00:47:53.166Z,10.50
2019-03-24T00:50:22.072Z,10.45
2019-03-24T00:52:51.714Z,10.37
2019-03-24T00:55:21.818Z,10.32
2019-03-24T00:57:50.801Z,10.26
2019-03-24T01:00:42.585Z,10.19
2019-03-24T01:03:11.894Z,10.12
2019-03-24T01:05:41.047Z,10.03
2019-03-24T01:08:10.214Z,9.99
2019-03-24T01:10:42.018Z,9.93
2019-03-24T01:13:13.896Z,9.87
2019-03-24T01:15:47.792Z,9.83
2019-03-24T01:18:15.125Z,9.80
2019-03-24T01:20:44.201Z,9.79
2019-03-24T01:23:13.832Z,9.76
2019-03-24T01:25:42.762Z,9.73
2019-03-24T01:28:11.627Z,9.71
2019-03-24T01:30:40.516Z,9.68
2019-03-24T01:33:09.706Z,9.67
2019-03-24T01:35:38.606Z,9.63
2019-03-24T01:38:07.781Z,9.57
2019-03-24T01:40:36.653Z,9.55
2019-03-24T01:43:05.524Z,9.52
2019-03-24T01:45:34.428Z,9.47
2019-03-24T01:48:03.384Z,9.40
2019-03-24T01:50:32.279Z,9.38
2019-03-24T01:53:01.149Z,9.35
2019-03-24T01:55:30.058Z,9.31
2019-03-24T01:57:58.953Z,9.28
2019-03-24T02:00:28.260Z,9.25
2019-03-24T02:02:57.280Z,9.20
2019-03-24T02:05:27.429Z,9.15
2019-03-24T02:07:56.478Z,9.12
2019-03-24T02:10:25.408Z,9.08
2019-03-24T02:12:54.390Z,9.06
2019-03-24T02:15:23.375Z,9.03
2019-03-24T02:17:54.028Z,9.00
2019-03-24T02:20:23.555Z,8.96
2019-03-24T02:22:52.506Z,8.93
2019-03-24T02:25:21.773Z,8.89
2019-03-24T02:27:50.739Z,8.88
2019-03-24T02:30:19.617Z,8.84
2019-03-24T02:32:48.613Z,8.82
2019-03-24T02:35:17.501Z,8.79
2019-03-24T02:37:46.699Z,8.77
2019-03-24T02:40:15.630Z,8.72
2019-03-24T02:42:44.559Z,8.70
2019-03-24T02:45:14.949Z,8.66
2019-03-24T02:47:43.935Z,8.63
2019-03-24T02:50:14.213Z,8.61
2019-03-24T02:52:44.926Z,8.56
2019-03-24T02:55:15.105Z,8.51
2019-03-24T02:57:44.098Z,8.47
2019-03-24T03:00:13.514Z,8.42
2019-03-24T03:02:42.761Z,8.39
2019-03-24T03:05:11.760Z,8.39
2019-03-24T03:07:41.631Z,8.37
2019-03-24T03:10:10.813Z,8.33
2019-03-24T03:12:39.675Z,8.33
2019-03-24T03:15:09.192Z,8.31
2019-03-24T03:17:38.508Z,8.30
2019-03-24T03:20:08.904Z,8.26
2019-03-24T03:22:37.865Z,8.23
2019-03-24T03:25:07.030Z,8.19
2019-03-24T03:27:36.159Z,8.14
2019-03-24T03:30:06.219Z,8.07
2019-03-24T03:32:35.128Z,8.02
2019-03-24T03:35:05.008Z,7.98
2019-03-24T03:37:33.987Z,7.97
2019-03-24T03:40:03.868Z,7.95
2019-03-24T03:42:32.945Z,7.95
2019-03-24T03:45:02.583Z,7.94
2019-03-24T03:47:31.899Z,7.90
2019-03-24T03:50:00.798Z,7.85
2019-03-24T03:52:30.017Z,7.80
2019-03-24T03:54:59.158Z,7.77
2019-03-24T03:57:28.804Z,7.75
2019-03-24T03:59:57.944Z,7.70
2019-03-24T04:02:26.814Z,7.67
2019-03-24T04:04:56.038Z,7.66
2019-03-24T04:07:26.776Z,7.65
2019-03-24T04:09:55.917Z,7.63
2019-03-24T04:12:25.012Z,7.62
2019-03-24T04:14:54.182Z,7.60
2019-03-24T04:17:23.062Z,7.60
2019-03-24T04:19:53.066Z,7.59
2019-03-24T04:22:22.138Z,7.57
2019-03-24T04:24:55.813Z,7.56
2019-03-24T04:27:24.727Z,7.54
2019-03-24T04:29:53.569Z,7.52
2019-03-24T04:32:22.472Z,7.50
2019-03-24T04:34:51.625Z,7.47
2019-03-24T04:37:20.481Z,7.44
2019-03-24T04:39:49.397Z,7.36
2019-03-24T04:42:18.258Z,7.28
2019-03-24T04:44:47.115Z,7.22
2019-03-24T04:47:17.038Z,7.16
2019-03-24T04:49:45.942Z,7.11
2019-03-24T04:52:14.852Z,7.07
2019-03-24T04:54:44.032Z,7.02
2019-03-24T04:57:12.917Z,6.96
2019-03-24T04:59:41.794Z,6.90
2019-03-24T05:02:10.690Z,6.85
2019-03-24T05:04:39.517Z,6.78
2019-03-24T05:07:09.589Z,6.71
2019-03-24T05:09:38.543Z,6.64
2019-03-24T05:12:07.401Z,6.63
2019-03-24T05:14:36.292Z,6.62
2019-03-24T05:17:05.157Z,6.60
2019-03-24T05:19:34.004Z,6.59
2019-03-24T05:22:02.876Z,6.59
2019-03-24T05:24:31.786Z,6.59
2019-03-24T05:27:00.630Z,6.59
2019-03-24T05:29:29.491Z,6.60
2019-03-24T05:31:58.358Z,6.62
2019-03-24T05:34:27.285Z,6.64
2019-03-24T05:36:56.120Z,6.66
2019-03-24T05:39:25.064Z,6.68
2019-03-24T05:41:54.340Z,6.69
2019-03-24T05:44:23.362Z,6.71
2019-03-24T05:46:52.253Z,6.72
2019-03-24T05:49:21.254Z,6.72
2019-03-24T05:51:50.162Z,6.71
2019-03-24T05:54:19.070Z,6.71
2019-03-24T05:56:47.914Z,6.73
2019-03-24T05:59:18.311Z,6.74
2019-03-24T06:01:47.514Z,6.76
2019-03-24T06:04:16.575Z,6.78
2019-03-24T06:06:46.516Z,6.79
2019-03-24T06:09:16.609Z,6.82
2019-03-24T06:11:45.514Z,6.86
2019-03-24T06:14:14.403Z,6.88
2019-03-24T06:16:43.272Z,6.90
2019-03-24T06:19:12.217Z,6.94
2019-03-24T06:21:41.071Z,6.95
2019-03-24T06:24:10.325Z,6.97
2019-03-24T06:26:39.657Z,7.00
2019-03-24T06:29:08.555Z,7.02
2019-03-24T06:31:37.409Z,7.06
2019-03-24T06:34:06.348Z,7.09
2019-03-24T06:36:36.212Z,7.13
2019-03-24T06:39:06.783Z,7.15
2019-03-24T06:41:36.080Z,7.17
2019-03-24T06:44:04.946Z,7.20
2019-03-24T06:46:35.727Z,7.25
2019-03-24T06:49:04.708Z,7.32
2019-03-24T06:51:33.569Z,7.38
2019-03-24T06:54:02.857Z,7.45
2019-03-24T06:56:31.716Z,7.53
2019-03-24T06:59:00.641Z,7.63
2019-03-24T07:01:29.547Z,7.75
2019-03-24T07:03:58.441Z,7.85
2019-03-24T07:06:27.312Z,7.98
2019-03-24T07:08:56.223Z,8.08
2019-03-24T07:11:25.247Z,8.21
2019-03-24T07:13:54.271Z,8.33
2019-03-24T07:16:23.178Z,8.46
2019-03-24T07:18:52.098Z,8.64
2019-03-24T07:21:21.429Z,8.83
2019-03-24T07:23:50.389Z,9.02
2019-03-24T07:26:19.423Z,9.23
2019-03-24T07:28:48.273Z,9.49
2019-03-24T07:31:18.650Z,9.75
2019-03-24T07:33:47.508Z,10.03
2019-03-24T07:36:16.426Z,10.29
2019-03-24T07:38:47.107Z,10.56
2019-03-24T07:41:17.604Z,10.84
2019-03-24T07:43:46.455Z,11.11
2019-03-24T07:46:15.374Z,11.36
2019-03-24T07:48:44.413Z,11.61
2019-03-24T07:51:13.312Z,11.90
2019-03-24T07:53:42.597Z,12.19
2019-03-24T07:56:11.514Z,12.45
2019-03-24T07:58:40.458Z,12.69
2019-03-24T08:01:09.402Z,12.86
2019-03-24T08:03:39.488Z,13.02
2019-03-24T08:06:08.489Z,13.18
2019-03-24T08:08:44.233Z,13.36
2019-03-24T08:11:12.345Z,13.51
2019-03-24T08:13:52.934Z,13.71
2019-03-24T08:16:12.021Z,13.93
2019-03-24T08:18:40.863Z,14.16
2019-03-24T08:21:09.731Z,14.40
2019-03-24T08:23:38.593Z,14.66
2019-03-24T08:26:07.514Z,14.92
2019-03-24T08:28:36.478Z,15.11
2019-03-24T08:31:05.436Z,15.39
2019-03-24T08:33:35.747Z,15.70
2019-03-24T08:36:04.679Z,16.04
2019-03-24T08:38:33.515Z,16.37
2019-03-24T08:41:02.648Z,16.67
2019-03-24T08:43:31.886Z,16.96
2019-03-24T08:46:00.897Z,17.27
2019-03-24T08:48:40.124Z,17.45
2019-03-24T08:51:00.782Z,17.62
2019-03-24T08:53:29.628Z,17.84
2019-03-24T08:55:58.940Z,18.07
2019-03-24T08:58:27.836Z,18.31
2019-03-24T09:00:57.093Z,18.59
2019-03-24T09:03:25.909Z,18.84
2019-03-24T09:05:56.586Z,19.13
2019-03-24T09:08:25.643Z,19.40
2019-03-24T09:10:54.672Z,19.62
2019-03-24T09:13:23.663Z,19.91
2019-03-24T09:15:54.226Z,20.15
2019-03-24T09:18:23.115Z,20.42
2019-03-24T09:20:52.449Z,20.70
2019-03-24T09:23:21.454Z,20.97
2019-03-24T09:25:50.771Z,21.22
2019-03-24T09:28:19.877Z,21.39
2019-03-24T09:30:48.925Z,21.47
2019-03-24T09:33:18.956Z,21.60
2019-03-24T09:35:47.848Z,21.74
2019-03-24T09:38:16.780Z,21.88
2019-03-24T09:40:45.805Z,21.95
2019-03-24T09:43:14.739Z,22.10
2019-03-24T09:45:43.623Z,22.24
2019-03-24T09:48:12.585Z,22.41
2019-03-24T09:50:41.500Z,22.56
2019-03-24T09:53:10.672Z,22.70
2019-03-24T09:55:39.549Z,22.90
2019-03-24T09:58:08.467Z,23.05
2019-03-24T10:00:37.360Z,23.26
2019-03-24T10:03:06.821Z,23.40
2019-03-24T10:05:35.731Z,23.56
2019-03-24T10:08:04.909Z,23.50
2019-03-24T10:10:33.793Z,23.64
2019-03-24T10:13:02.927Z,23.82
2019-03-24T10:15:32.643Z,24.10
2019-03-24T10:18:01.580Z,24.34
2019-03-24T10:20:30.757Z,24.58
2019-03-24T10:22:59.787Z,24.83
2019-03-24T10:25:28.699Z,25.03
2019-03-24T10:27:57.741Z,25.17
2019-03-24T10:30:26.641Z,25.30
2019-03-24T10:32:55.959Z,25.44
2019-03-24T10:35:24.805Z,25.45
2019-03-24T10:37:54.457Z,25.38
2019-03-24T10:40:28.598Z,25.44
2019-03-24T10:42:54.188Z,25.54
2019-03-24T10:45:23.065Z,25.72
2019-03-24T10:47:53.173Z,25.86
2019-03-24T10:50:22.056Z,26.03
2019-03-24T10:52:52.246Z,26.14
2019-03-24T10:55:22.298Z,26.27
2019-03-24T10:57:52.422Z,26.43
2019-03-24T11:00:40.414Z,26.63
2019-03-24T11:03:09.362Z,26.91
2019-03-24T11:05:38.628Z,27.26
2019-03-24T11:08:07.512Z,27.54
2019-03-24T11:10:36.556Z,27.83
2019-03-24T11:13:07.460Z,27.93
2019-03-24T11:15:37.441Z,28.09
2019-03-24T11:18:09.305Z,28.28
2019-03-24T11:20:38.579Z,28.30
2019-03-24T11:23:07.730Z,28.47
2019-03-24T11:25:36.568Z,28.67
2019-03-24T11:28:05.443Z,28.74
2019-03-24T11:30:34.344Z,28.88
2019-03-24T11:33:04.338Z,29.14
2019-03-24T11:35:33.311Z,29.22
2019-03-24T11:38:02.183Z,29.30
2019-03-24T11:40:31.105Z,29.49
2019-03-24T11:43:00.043Z,29.76
2019-03-24T11:45:28.859Z,29.99
2019-03-24T11:47:58.149Z,30.09
2019-03-24T11:50:27.006Z,30.29
2019-03-24T11:52:55.885Z,30.50
2019-03-24T11:55:24.761Z,30.73
2019-03-24T11:58:05.097Z,30.97
2019-03-24T12:00:44.923Z,31.23
2019-03-24T12:03:14.018Z,31.45
2019-03-24T12:05:42.885Z,31.63
2019-03-24T12:08:12.046Z,31.67
2019-03-24T12:10:40.919Z,31.71
2019-03-24T12:13:11.650Z,31.70
2019-03-24T12:15:40.550Z,31.68
2019-03-24T12:18:09.542Z,31.61
2019-03-24T12:20:38.483Z,31.21
2019-03-24T12:23:07.751Z,30.86
2019-03-24T12:25:36.594Z,30.90
2019-03-24T12:28:05.469Z,31.11
2019-03-24T12:30:34.590Z,31.36
2019-03-24T12:33:03.634Z,31.55
2019-03-24T12:35:32.451Z,31.69
2019-03-24T12:38:02.382Z,31.80
2019-03-24T12:40:31.381Z,31.85
2019-03-24T12:43:00.281Z,31.83
2019-03-24T12:45:29.125Z,31.77
2019-03-24T12:47:58.079Z,31.67
2019-03-24T12:50:31.640Z,31.56
2019-03-24T12:52:57.792Z,31.48
2019-03-24T12:55:27.997Z,31.41
2019-03-24T12:57:57.036Z,31.37
2019-03-24T13:00:37.742Z,31.33
2019-03-24T13:03:07.319Z,31.31
2019-03-24T13:05:36.356Z,31.33
2019-03-24T13:08:30.370Z,31.33
2019-03-24T13:10:59.449Z,31.38
2019-03-24T13:13:28.496Z,31.40
2019-03-24T13:16:01.040Z,31.43
2019-03-24T13:18:30.238Z,31.40
2019-03-24T13:20:59.162Z,31.29
2019-03-24T13:23:28.327Z,31.10
2019-03-24T13:25:57.328Z,30.99
2019-03-24T13:28:35.762Z,30.92
2019-03-24T13:31:04.625Z,30.84
2019-03-24T13:33:33.540Z,30.72
2019-03-24T13:36:10.338Z,30.60
2019-03-24T13:38:39.202Z,30.49
2019-03-24T13:41:08.592Z,30.42
2019-03-24T13:43:43.201Z,30.39
2019-03-24T13:46:12.646Z,30.29
2019-03-24T13:48:41.751Z,30.16
2019-03-24T13:51:20.276Z,30.08
2019-03-24T13:53:49.379Z,29.91
2019-03-24T13:56:19.403Z,29.72
2019-03-24T13:58:49.255Z,29.58
2019-03-24T14:01:18.124Z,29.46
2019-03-24T14:03:47.008Z,29.33
2019-03-24T14:06:16.248Z,29.23
2019-03-24T14:08:45.117Z,29.12
2019-03-24T14:11:14.281Z,28.97
2019-03-24T14:13:43.192Z,28.77
2019-03-24T14:16:12.128Z,28.57
2019-03-24T14:18:41.342Z,28.41
2019-03-24T14:21:10.384Z,28.25
2019-03-24T14:23:39.572Z,28.11
2019-03-24T14:26:08.500Z,28.02
2019-03-24T14:28:38.495Z,27.90
2019-03-24T14:31:07.395Z,27.80
2019-03-24T14:33:37.101Z,27.74
2019-03-24T14:36:06.012Z,27.68
2019-03-24T14:38:35.155Z,27.57
2019-03-24T14:41:04.949Z,27.48
2019-03-24T14:43:34.010Z,27.40
2019-03-24T14:46:03.072Z,27.32
2019-03-24T14:48:32.303Z,27.20
2019-03-24T14:51:01.197Z,27.08
2019-03-24T14:53:30.378Z,26.95
2019-03-24T14:55:59.370Z,26.82
2019-03-24T14:58:28.277Z,26.74
2019-03-24T15:00:57.562Z,26.62
2019-03-24T15:03:26.442Z,26.53
2019-03-24T15:05:55.453Z,26.45
2019-03-24T15:08:25.376Z,26.38
2019-03-24T15:10:54.275Z,26.24
2019-03-24T15:13:24.329Z,26.08
2019-03-24T15:15:53.399Z,25.90
2019-03-24T15:18:22.415Z,25.76
2019-03-24T15:20:51.320Z,25.62
2019-03-24T15:23:23.093Z,25.45
2019-03-24T15:25:52.493Z,25.26
2019-03-24T15:28:21.358Z,25.08
2019-03-24T15:30:50.286Z,24.92
2019-03-24T15:33:19.160Z,24.81
2019-03-24T15:35:48.361Z,24.72
2019-03-24T15:38:17.237Z,24.56
2019-03-24T15:40:46.140Z,24.43
2019-03-24T15:43:15.021Z,24.29
2019-03-24T15:45:44.043Z,24.18
2019-03-24T15:48:13.096Z,24.06
2019-03-24T15:50:42.040Z,23.95
2019-03-24T15:53:10.972Z,23.81
2019-03-24T15:55:39.912Z,23.68
2019-03-24T15:58:09.876Z,23.54
2019-03-24T16:00:47.033Z,23.41
2019-03-24T16:03:16.271Z,23.29
2019-03-24T16:05:45.183Z,23.17
2019-03-24T16:08:14.059Z,23.03
2019-03-24T16:10:43.341Z,22.92
2019-03-24T16:13:12.871Z,22.78
2019-03-24T16:15:41.815Z,22.66
2019-03-24T16:18:10.770Z,22.52
2019-03-24T16:20:41.053Z,22.38
2019-03-24T16:23:10.160Z,22.22
2019-03-24T16:25:39.530Z,22.06
2019-03-24T16:28:09.104Z,21.93
2019-03-24T16:30:38.272Z,21.77
2019-03-24T16:33:07.283Z,21.63
2019-03-24T16:35:36.214Z,21.50
2019-03-24T16:38:05.352Z,21.39
2019-03-24T16:40:35.005Z,21.32
2019-03-24T16:43:04.399Z,21.22
2019-03-24T16:45:35.051Z,21.13
2019-03-24T16:48:05.151Z,21.03
2019-03-24T16:50:34.267Z,20.93
2019-03-24T16:53:03.344Z,20.81
2019-03-24T16:55:32.581Z,20.69
2019-03-24T16:58:01.534Z,20.61
2019-03-24T17:00:30.566Z,20.52
2019-03-24T17:03:00.344Z,20.45
2019-03-24T17:05:29.875Z,20.39
2019-03-24T17:07:59.206Z,20.33
2019-03-24T17:10:28.064Z,20.25
2019-03-24T17:12:57.764Z,20.20
2019-03-24T17:15:27.075Z,20.15
2019-03-24T17:17:56.089Z,20.09
2019-03-24T17:20:24.967Z,20.02
2019-03-24T17:23:00.846Z,19.95
2019-03-24T17:25:30.246Z,19.89
2019-03-24T17:27:59.632Z,19.82
2019-03-24T17:30:28.793Z,19.75
2019-03-24T17:32:57.981Z,19.67
2019-03-24T17:35:26.939Z,19.58
2019-03-24T17:37:57.926Z,19.49
2019-03-24T17:40:27.046Z,19.41
2019-03-24T17:42:57.249Z,19.30
2019-03-24T17:45:26.685Z,19.21
2019-03-24T17:48:06.707Z,19.14
2019-03-24T17:50:37.649Z,19.05
2019-03-24T17:53:07.031Z,18.97
2019-03-24T17:55:36.370Z,18.87
2019-03-24T17:58:05.696Z,18.80
2019-03-24T18:00:42.199Z,18.72
2019-03-24T18:03:11.357Z,18.64
2019-03-24T18:05:40.349Z,18.53
2019-03-24T18:08:09.323Z,18.43
2019-03-24T18:10:38.589Z,18.33
2019-03-24T18:13:15.589Z,18.22
2019-03-24T18:15:48.547Z,18.11
2019-03-24T18:18:23.026Z,18.02
2019-03-24T18:20:51.997Z,17.92
2019-03-24T18:23:23.875Z,17.83
2019-03-24T18:25:52.852Z,17.75
2019-03-24T18:28:21.897Z,17.65
2019-03-24T18:30:50.993Z,17.57
2019-03-24T18:33:20.336Z,17.48
2019-03-24T18:35:58.155Z,17.41
2019-03-24T18:38:27.279Z,17.33
2019-03-24T18:41:03.657Z,17.26
2019-03-24T18:43:32.584Z,17.18
2019-03-24T18:46:02.771Z,17.12
2019-03-24T18:48:31.703Z,17.06
2019-03-24T18:51:00.742Z,16.99
2019-03-24T18:53:30.871Z,16.94
2019-03-24T18:55:59.758Z,16.88
2019-03-24T18:58:31.962Z,16.82
2019-03-24T19:01:00.537Z,16.76
2019-03-24T19:03:30.715Z,16.71
2019-03-24T19:05:59.610Z,16.65
2019-03-24T19:08:28.736Z,16.62
2019-03-24T19:10:57.641Z,16.58
2019-03-24T19:13:27.039Z,16.54
2019-03-24T19:15:56.097Z,16.47
2019-03-24T19:18:25.148Z,16.43
2019-03-24T19:20:55.187Z,16.39
2019-03-24T19:23:26.345Z,16.34
2019-03-24T19:25:55.528Z,16.31
2019-03-24T19:28:24.826Z,16.28
2019-03-24T19:30:53.775Z,16.25
2019-03-24T19:33:24.161Z,16.21
2019-03-24T19:35:54.825Z,16.18
2019-03-24T19:38:25.434Z,16.13
2019-03-24T19:40:54.456Z,16.03
2019-03-24T19:43:24.580Z,15.94
2019-03-24T19:45:53.630Z,15.85
2019-03-24T19:48:22.818Z,15.76
2019-03-24T19:50:51.756Z,15.69
2019-03-24T19:53:20.953Z,15.65
2019-03-24T19:55:49.902Z,15.61
2019-03-24T19:58:18.851Z,15.58
2019-03-24T20:00:47.778Z,15.56
2019-03-24T20:03:16.714Z,15.50
2019-03-24T20:05:46.114Z,15.46
2019-03-24T20:08:15.280Z,15.40
2019-03-24T20:10:44.792Z,15.35
2019-03-24T20:13:15.146Z,15.30
2019-03-24T20:15:44.371Z,15.24
2019-03-24T20:18:13.570Z,15.18
2019-03-24T20:20:42.769Z,15.12
2019-03-24T20:23:11.644Z,15.02
2019-03-24T20:25:59.169Z,14.90
2019-03-24T20:28:28.218Z,14.81
2019-03-24T20:30:59.144Z,14.73
2019-03-24T20:33:29.517Z,14.69
2019-03-24T20:35:58.490Z,14.61
2019-03-24T20:38:27.995Z,14.57
2019-03-24T20:40:57.549Z,14.50
2019-03-24T20:43:28.355Z,14.42
2019-03-24T20:45:57.319Z,14.34
2019-03-24T20:48:27.497Z,14.26
2019-03-24T20:51:10.418Z,14.16
2019-03-24T20:53:39.517Z,14.06
2019-03-24T20:56:08.544Z,13.94
2019-03-24T20:58:37.576Z,13.83
2019-03-24T21:01:07.928Z,13.74
2019-03-24T21:03:36.960Z,13.69
2019-03-24T21:06:05.841Z,13.63
2019-03-24T21:08:34.831Z,13.59
2019-03-24T21:11:04.079Z,13.53
2019-03-24T21:13:32.978Z,13.49
2019-03-24T21:16:02.414Z,13.45
2019-03-24T21:18:39.756Z,13.41
2019-03-24T21:21:09.252Z,13.37
2019-03-24T21:23:45.893Z,13.34
2019-03-24T21:26:16.049Z,13.29
2019-03-24T21:28:45.315Z,13.22
2019-03-24T21:31:14.487Z,13.15
2019-03-24T21:33:43.517Z,13.09
2019-03-24T21:36:12.551Z,13.05
2019-03-24T21:38:41.426Z,13.01
2019-03-24T21:41:12.211Z,12.98
2019-03-24T21:43:41.211Z,12.97
2019-03-24T21:46:10.133Z,12.95
2019-03-24T21:48:39.098Z,12.93
2019-03-24T21:51:08.387Z,12.92
2019-03-24T21:53:40.850Z,12.91
2019-03-24T21:56:08.641Z,12.91
2019-03-24T21:58:37.552Z,12.89
2019-03-24T22:01:07.149Z,12.89
2019-03-24T22:03:36.517Z,12.88
2019-03-24T22:06:05.461Z,12.88
2019-03-24T22:08:34.363Z,12.87
2019-03-24T22:11:03.749Z,12.87
2019-03-24T22:13:32.670Z,12.87
2019-03-24T22:16:01.551Z,12.84
2019-03-24T22:18:30.825Z,12.83
2019-03-24T22:21:00.981Z,12.80
2019-03-24T22:23:29.898Z,12.78
2019-03-24T22:25:59.033Z,12.74
2019-03-24T22:28:27.955Z,12.70
2019-03-24T22:30:56.831Z,12.66
2019-03-24T22:33:27.727Z,12.63
2019-03-24T22:35:57.834Z,12.59
2019-03-24T22:38:27.469Z,12.56
2019-03-24T22:40:56.323Z,12.53
2019-03-24T22:43:27.016Z,12.49
2019-03-24T22:45:55.897Z,12.42
2019-03-24T22:48:24.798Z,12.36
2019-03-24T22:50:53.800Z,12.28
2019-03-24T22:53:22.721Z,12.22
2019-03-24T22:55:51.595Z,12.17
2019-03-24T22:58:20.524Z,12.16
2019-03-24T23:00:55.015Z,12.16
2019-03-24T23:03:25.255Z,12.17
2019-03-24T23:05:54.936Z,12.19
2019-03-24T23:08:23.844Z,12.19
2019-03-24T23:10:52.738Z,12.20
2019-03-24T23:13:21.639Z,12.21
2019-03-24T23:15:50.537Z,12.22
2019-03-24T23:18:19.802Z,12.24
2019-03-24T23:20:48.732Z,12.25
2019-03-24T23:23:17.745Z,12.29
2019-03-24T23:25:46.673Z,12.30
2019-03-24T23:28:15.860Z,12.33
2019-03-24T23:30:44.876Z,12.33
2019-03-24T23:33:15.697Z,12.35
2019-03-24T23:35:45.516Z,12.35
2019-03-24T23:38:14.556Z,12.35
2019-03-24T23:40:43.601Z,12.36
2019-03-24T23:43:12.574Z,12.37
2019-03-24T23:45:41.808Z,12.39
2019-03-24T23:48:11.064Z,12.41
2019-03-24T23:50:41.105Z,12.43
2019-03-24T23:53:09.945Z,12.45
2019-03-24T23:55:39.128Z,12.47
2019-03-24T23:58:07.990Z,12.48
